Time;durP1;ratioP1;P1;durP2;ratioP2;P2;SDS_P1;SDS_P2;PMS_P1;PMS_P2;Temp;Humidity;BMP_temperature;BMP_pressure;BME280_temperature;BME280_humidity;BME280_pressure;Samples;Min_cycle;Max_cycle;Signal;HPM_P1;HPM_P2
2021/11/12 00:16:43;;;;;;;118.90;35.15;;;;;;;7.78;100.00;100905.05;710548;1203;114893;-73
2021/11/12 00:31:57;;;;;;;84.03;29.50;;;;;;;7.78;100.00;100896.39;710096;1184;115015;-73
2021/11/12 00:47:08;;;;;;;78.55;28.30;;;;;;;7.86;100.00;100895.88;710121;1208;114651;-73
2021/11/12 01:02:11;;;;;;;79.65;27.60;;;;;;;7.95;100.00;100909.16;710412;1184;114195;-73
2021/11/12 01:17:13;;;;;;;81.18;27.28;;;;;;;8.02;100.00;100909.58;709989;1210;115472;-74
2021/11/12 01:32:26;;;;;;;75.75;30.50;;;;;;;8.12;100.00;100899.35;710312;1209;115884;-74
2021/11/12 02:02:56;;;;;;;64.50;23.90;;;;;;;8.19;100.00;100905.82;709567;1208;114187;-74
2021/11/12 02:18:03;;;;;;;78.63;29.03;;;;;;;8.39;100.00;100922.75;709939;1212;115474;-73
2021/11/12 02:33:15;;;;;;;68.93;26.93;;;;;;;8.52;100.00;100908.88;710546;1184;114180;-73
2021/11/12 02:48:18;;;;;;;93.20;28.50;;;;;;;8.54;100.00;100922.66;709927;1208;114619;-73
2021/11/12 03:03:21;;;;;;;75.80;24.88;;;;;;;8.56;100.00;100926.84;709659;1209;115448;-73
2021/11/12 03:18:24;;;;;;;71.55;24.75;;;;;;;8.68;100.00;100924.34;709610;1209;114261;-73
2021/11/12 06:06:54;;;;;;;49.90;19.90;;;;;;;9.12;100.00;100991.03;710185;1211;115182;-73
2021/11/12 06:21:57;;;;;;;57.50;23.15;;;;;;;9.19;100.00;101014.99;710526;1209;115994;-73
2021/11/12 06:36:59;;;;;;;112.85;51.90;;;;;;;9.33;100.00;101007.00;710235;1208;114796;-70
2021/11/12 06:52:02;;;;;;;55.73;25.30;;;;;;;9.37;100.00;101018.06;710303;1209;115541;-71
2021/11/12 07:07:07;;;;;;;64.50;29.40;;;;;;;9.56;100.00;101025.45;710517;1212;115372;-70
2021/11/12 07:22:11;;;;;;;57.10;26.00;;;;;;;9.64;100.00;101031.80;710437;1209;115198;-72
2021/11/12 07:37:14;;;;;;;72.60;30.33;;;;;;;9.93;100.00;101033.26;710253;1209;114966;-74
2021/11/12 07:52:20;;;;;;;81.25;33.60;;;;;;;10.07;100.00;101037.47;710342;1209;115001;-73
2021/11/12 08:07:25;;;;;;;64.45;27.50;;;;;;;10.14;100.00;101047.39;710000;1184;115619;-74
2021/11/12 08:22:53;;;;;;;66.90;28.80;;;;;;;10.31;100.00;101053.17;720497;1208;115837;-73
2021/11/12 08:38:00;;;;;;;77.25;31.65;;;;;;;10.47;100.00;101056.34;710130;1189;114644;-74
2021/11/12 08:53:06;;;;;;;58.90;25.80;;;;;;;10.70;100.00;101059.00;709900;1184;114874;-74
2021/11/12 09:08:09;;;;;;;44.70;23.00;;;;;;;10.87;100.00;101059.52;710080;1208;115245;-73
2021/11/12 09:23:11;;;;;;;60.85;27.10;;;;;;;11.00;100.00;101073.36;710054;1209;114797;-73
2021/11/12 09:38:13;;;;;;;33.53;17.47;;;;;;;10.73;100.00;101071.05;710163;1208;114336;-74
2021/11/12 10:10:11;;;;;;;79.90;42.80;;;;;;;11.51;100.00;101044.89;703856;1218;115018;-73
2021/11/12 10:25:15;;;;;;;42.60;23.00;;;;;;;12.19;100.00;101045.52;704234;1222;116090;-73
2021/11/12 10:40:26;;;;;;;40.45;18.90;;;;;;;11.78;100.00;101037.41;707008;1212;115083;-74
2021/11/12 10:55:30;;;;;;;48.85;21.70;;;;;;;11.91;100.00;101041.69;710634;1208;115693;-74
2021/11/12 11:10:38;;;;;;;40.60;19.90;;;;;;;11.99;100.00;101015.63;710123;1209;114920;-74
2021/11/12 11:25:55;;;;;;;36.63;17.07;;;;;;;11.92;100.00;101017.06;710553;1209;117283;-74
2021/11/12 11:41:01;;;;;;;29.30;15.70;;;;;;;12.51;100.00;101004.33;710194;1211;115507;-74
2021/11/12 11:56:30;;;;;;;56.30;25.80;;;;;;;12.91;100.00;100991.20;710182;1211;115185;-73
2021/11/12 12:11:55;;;;;;;30.80;16.80;;;;;;;12.61;100.00;100981.52;710162;1209;115136;-71
2021/11/12 13:28:49;;;;;;;89.90;37.60;;;;;;;14.18;100.00;100992.34;715782;1208;114314;-73
2021/11/12 13:44:00;;;;;;;47.10;20.80;;;;;;;14.79;100.00;100991.91;710277;1186;115159;-73
2021/11/12 13:59:11;;;;;;;38.17;21.40;;;;;;;13.83;100.00;101002.50;710297;1208;115092;-73
2021/11/12 14:14:22;;;;;;;48.80;22.90;;;;;;;13.04;100.00;100985.71;710203;1183;114397;-73
2021/11/12 15:00:16;;;;;;;140.00;62.60;;;;;;;12.00;100.00;100985.73;710224;1184;114972;-74
2021/11/12 15:15:19;;;;;;;76.07;32.27;;;;;;;11.62;100.00;101010.72;710208;1208;115490;-74
2021/11/12 15:30:44;;;;;;;204.70;80.20;;;;;;;11.65;100.00;101010.45;710274;1208;114724;-73
2021/11/12 16:31:03;;;;;;;119.65;51.20;;;;;;;10.23;100.00;101006.55;710357;1209;116047;-73
2021/11/12 16:46:19;;;;;;;120.10;51.30;;;;;;;10.02;100.00;101013.38;710688;1183;114697;-73
2021/11/12 17:47:14;;;;;;;181.37;76.87;;;;;;;8.85;100.00;101009.49;710866;1183;114741;-74
2021/11/12 22:01:05;;;;;;;;;;;;;;;7.39;100.00;100927.63;715698;1199;113757;-74
2021/11/12 22:16:11;;;;;;;118.90;37.43;;;;;;;7.42;100.00;100916.98;714969;1199;100513;-72
2021/11/12 22:31:13;;;;;;;221.60;57.78;;;;;;;7.40;100.00;100921.45;714804;1200;114105;-73
2021/11/12 22:46:18;;;;;;;269.73;67.33;;;;;;;7.57;100.00;100898.64;715162;1180;114017;-74
2021/11/12 23:01:29;;;;;;;298.03;76.37;;;;;;;7.67;100.00;100899.72;714322;1199;115402;-73
2021/11/12 23:16:32;;;;;;;175.30;50.23;;;;;;;7.96;100.00;100883.88;714298;1199;115538;-73
2021/11/12 23:31:35;;;;;;;143.48;48.28;;;;;;;7.86;100.00;100869.76;714072;1176;113967;-74
2021/11/12 23:46:37;;;;;;;185.77;56.23;;;;;;;7.88;100.00;100854.80;714133;1202;115204;-74
